Huvudsida
METAR-TAF:

METAR-TAF

Flygplatser :

Niamey, Niger

latitud: 13-29N, longitud: 002-10E, höjd: 223 m

Aktuellt väderrapport

Denna rapport gjordes för 1 timme och 46 minuter sedan, klockan 11:00 UTC
Vind 8 kt från nord, varierande mellan nord/nordväst och nord/nordost
Temperatur 40°C
Fuktighet 13%
Tryck 1012 hPa
Sikt: 7000 m

METAR: DRRN 251100Z 36008KT 330V030 7000 NSC 40/06 Q1012 NOSIG

Tid: 13:46 (12:46 UTC)

Väderprognos

Denna rapport gjordes för 1 timme och 46 minuter sedan, klockan 11:00 UTC
Prognos gäller från 25 kl. 12 UTC till 26 kl. 18 UTC
Vind 10 kt från väst/nordväst
Sikt: 6000 m
Blir
från 25 kl. 12 UTC till 15 kl. 14 UTC
Sikt: 4000 m
utbrett stoft

TAF: DRRN 251100Z 2512/2618 30010KT 6000 NSC BECMG 2512/1514 4000 DU

Aktuella väderrapporter och prognoser från 4000 flygplatser (METAR- och TAF-rapporter).

De tillgängliga stationerna syns som gula och röda prickar på kartan.

För musen över prickarna för att se namnen på stationerna.

Klicka sedan för att få väderrapporter och prognoser.

För att ändra kartan: Klicka på de gröna knapparna med ett svart kors på för att zooma in; den gröna knappen med ett streck på för att zooma ut; eller på de gröna pilarna för angränsande kartor.


METAR-TAF: